Dalhousie, Canada
Current Conditions -  °F | °C
As of 3:00 AM on Monday 22 Dec 2014 (Local Time) from CZBF Reporting Station
Light Snow Light Snow  
Wind Chill: 13°   Ceiling: 1400
Heat Index: 19°   Visibility: 15mi
Dew Point: 16°   Wind: 5mph
Humidity: 86%   Direction: 280°W
Pressure: 30.45"   Gusts: NA
Location:  48.06°N, 66.37°W
Report Text: CZBF 220700Z 28004KT 15SM -SN OVC014 M07/M09 A3045 RMK ST8 SLP316
Loading
Personal Weather Stations






























Interactive Weather Map New forecast layout! Learn more

10-Day Weather Forecast

Advertisements
Track Severe Weather on mobile